sensor_id;sensor_type;location;lat;lon;timestamp;P1;durP1;ratioP1;P2;durP2;ratioP2
36379;SDS011;22411;53.016;18.632;2023-08-06T00:00:20;4.90;;;4.25;;
36379;SDS011;22411;53.016;18.632;2023-08-06T00:03:06;5.55;;;3.88;;
36379;SDS011;22411;53.016;18.632;2023-08-06T00:05:32;7.07;;;4.07;;
36379;SDS011;22411;53.016;18.632;2023-08-06T00:07:58;4.70;;;3.83;;
36379;SDS011;22411;53.016;18.632;2023-08-06T00:10:24;5.72;;;4.45;;
36379;SDS011;22411;53.016;18.632;2023-08-06T00:12:49;5.78;;;4.45;;
36379;SDS011;22411;53.016;18.632;2023-08-06T00:15:15;6.15;;;4.10;;
36379;SDS011;22411;53.016;18.632;2023-08-06T00:17:44;6.85;;;4.30;;
36379;SDS011;22411;53.016;18.632;2023-08-06T00:22:38;5.00;;;4.50;;
36379;SDS011;22411;53.016;18.632;2023-08-06T00:25:04;5.43;;;4.75;;
36379;SDS011;22411;53.016;18.632;2023-08-06T00:27:30;5.57;;;4.60;;
36379;SDS011;22411;53.016;18.632;2023-08-06T00:29:57;6.63;;;4.95;;
36379;SDS011;22411;53.016;18.632;2023-08-06T00:32:23;7.07;;;4.50;;
36379;SDS011;22411;53.016;18.632;2023-08-06T00:34:49;5.10;;;4.43;;
36379;SDS011;22411;53.016;18.632;2023-08-06T00:37:17;6.40;;;4.68;;
36379;SDS011;22411;53.016;18.632;2023-08-06T00:39:43;5.05;;;4.47;;
36379;SDS011;22411;53.016;18.632;2023-08-06T00:42:10;5.80;;;4.60;;
36379;SDS011;22411;53.016;18.632;2023-08-06T00:44:37;7.40;;;4.70;;
36379;SDS011;22411;53.016;18.632;2023-08-06T00:47:03;5.40;;;4.63;;
36379;SDS011;22411;53.016;18.632;2023-08-06T00:49:29;4.45;;;4.05;;
36379;SDS011;22411;53.016;18.632;2023-08-06T00:51:55;7.07;;;5.13;;
36379;SDS011;22411;53.016;18.632;2023-08-06T00:54:21;6.22;;;4.97;;
36379;SDS011;22411;53.016;18.632;2023-08-06T00:56:48;6.55;;;5.20;;
36379;SDS011;22411;53.016;18.632;2023-08-06T00:59:14;7.10;;;5.10;;
36379;SDS011;22411;53.016;18.632;2023-08-06T01:01:40;5.63;;;4.57;;
36379;SDS011;22411;53.016;18.632;2023-08-06T01:04:06;8.30;;;4.50;;
36379;SDS011;22411;53.016;18.632;2023-08-06T01:06:48;5.80;;;4.65;;
36379;SDS011;22411;53.016;18.632;2023-08-06T01:12:30;5.00;;;4.60;;
36379;SDS011;22411;53.016;18.632;2023-08-06T01:15:08;7.25;;;4.45;;
36379;SDS011;22411;53.016;18.632;2023-08-06T01:17:54;6.03;;;4.28;;
36379;SDS011;22411;53.016;18.632;2023-08-06T01:20:20;9.07;;;4.53;;
36379;SDS011;22411;53.016;18.632;2023-08-06T01:22:45;5.13;;;4.13;;
36379;SDS011;22411;53.016;18.632;2023-08-06T01:25:11;7.47;;;4.95;;
36379;SDS011;22411;53.016;18.632;2023-08-06T01:27:50;5.75;;;4.20;;
36379;SDS011;22411;53.016;18.632;2023-08-06T01:30:20;7.85;;;4.18;;
36379;SDS011;22411;53.016;18.632;2023-08-06T01:32:53;5.60;;;4.97;;
36379;SDS011;22411;53.016;18.632;2023-08-06T01:35:23;4.55;;;3.88;;
36379;SDS011;22411;53.016;18.632;2023-08-06T01:37:51;6.95;;;4.50;;
36379;SDS011;22411;53.016;18.632;2023-08-06T01:40:17;5.40;;;3.97;;
36379;SDS011;22411;53.016;18.632;2023-08-06T01:42:43;7.45;;;4.50;;
36379;SDS011;22411;53.016;18.632;2023-08-06T01:45:08;6.85;;;4.55;;
36379;SDS011;22411;53.016;18.632;2023-08-06T01:47:35;4.47;;;4.07;;
36379;SDS011;22411;53.016;18.632;2023-08-06T01:50:01;4.25;;;3.83;;
36379;SDS011;22411;53.016;18.632;2023-08-06T01:52:27;5.50;;;4.43;;
36379;SDS011;22411;53.016;18.632;2023-08-06T01:54:53;3.78;;;3.47;;
36379;SDS011;22411;53.016;18.632;2023-08-06T01:57:19;4.90;;;3.88;;
36379;SDS011;22411;53.016;18.632;2023-08-06T01:59:44;6.00;;;4.10;;
36379;SDS011;22411;53.016;18.632;2023-08-06T02:02:10;4.05;;;3.55;;
36379;SDS011;22411;53.016;18.632;2023-08-06T02:04:36;4.55;;;4.15;;
36379;SDS011;22411;53.016;18.632;2023-08-06T02:07:01;3.67;;;3.15;;
36379;SDS011;22411;53.016;18.632;2023-08-06T02:09:27;4.65;;;3.50;;
36379;SDS011;22411;53.016;18.632;2023-08-06T02:11:53;7.03;;;3.90;;
36379;SDS011;22411;53.016;18.632;2023-08-06T02:14:18;4.57;;;3.15;;
36379;SDS011;22411;53.016;18.632;2023-08-06T02:16:44;3.63;;;3.30;;
36379;SDS011;22411;53.016;18.632;2023-08-06T02:19:09;3.97;;;3.13;;
36379;SDS011;22411;53.016;18.632;2023-08-06T02:21:35;5.22;;;3.00;;
36379;SDS011;22411;53.016;18.632;2023-08-06T02:24:01;3.78;;;3.10;;
36379;SDS011;22411;53.016;18.632;2023-08-06T02:26:27;2.75;;;2.55;;
36379;SDS011;22411;53.016;18.632;2023-08-06T02:28:53;2.65;;;2.42;;
36379;SDS011;22411;53.016;18.632;2023-08-06T02:31:18;3.78;;;3.15;;
36379;SDS011;22411;53.016;18.632;2023-08-06T02:33:44;4.13;;;2.28;;
36379;SDS011;22411;53.016;18.632;2023-08-06T02:36:10;2.55;;;2.03;;
36379;SDS011;22411;53.016;18.632;2023-08-06T02:38:35;4.13;;;3.03;;
36379;SDS011;22411;53.016;18.632;2023-08-06T02:41:04;3.05;;;2.15;;
36379;SDS011;22411;53.016;18.632;2023-08-06T02:43:29;4.03;;;2.22;;
36379;SDS011;22411;53.016;18.632;2023-08-06T02:45:59;3.15;;;1.85;;
36379;SDS011;22411;53.016;18.632;2023-08-06T02:48:25;3.05;;;2.10;;
36379;SDS011;22411;53.016;18.632;2023-08-06T02:50:51;3.13;;;1.85;;
36379;SDS011;22411;53.016;18.632;2023-08-06T02:53:17;3.22;;;2.05;;
36379;SDS011;22411;53.016;18.632;2023-08-06T02:55:47;3.45;;;2.03;;
36379;SDS011;22411;53.016;18.632;2023-08-06T02:58:13;2.55;;;1.73;;
36379;SDS011;22411;53.016;18.632;2023-08-06T03:00:40;5.10;;;2.50;;
36379;SDS011;22411;53.016;18.632;2023-08-06T03:03:06;2.85;;;1.20;;
36379;SDS011;22411;53.016;18.632;2023-08-06T03:05:32;2.08;;;1.48;;
36379;SDS011;22411;53.016;18.632;2023-08-06T03:07:57;2.15;;;1.30;;
36379;SDS011;22411;53.016;18.632;2023-08-06T03:10:23;2.63;;;1.83;;
36379;SDS011;22411;53.016;18.632;2023-08-06T03:12:49;2.65;;;1.38;;
36379;SDS011;22411;53.016;18.632;2023-08-06T03:15:14;1.73;;;1.40;;
36379;SDS011;22411;53.016;18.632;2023-08-06T03:17:40;2.92;;;1.77;;
36379;SDS011;22411;53.016;18.632;2023-08-06T03:20:06;2.83;;;1.17;;
36379;SDS011;22411;53.016;18.632;2023-08-06T03:22:32;3.75;;;1.45;;
36379;SDS011;22411;53.016;18.632;2023-08-06T03:24:57;2.67;;;1.20;;
36379;SDS011;22411;53.016;18.632;2023-08-06T03:27:23;1.60;;;1.00;;
36379;SDS011;22411;53.016;18.632;2023-08-06T03:29:49;2.10;;;1.10;;
36379;SDS011;22411;53.016;18.632;2023-08-06T03:32:18;1.83;;;1.15;;
36379;SDS011;22411;53.016;18.632;2023-08-06T03:34:48;2.58;;;1.67;;
36379;SDS011;22411;53.016;18.632;2023-08-06T03:37:13;2.95;;;2.40;;
36379;SDS011;22411;53.016;18.632;2023-08-06T03:39:39;4.00;;;2.97;;
36379;SDS011;22411;53.016;18.632;2023-08-06T03:42:05;8.25;;;5.28;;
36379;SDS011;22411;53.016;18.632;2023-08-06T03:44:31;8.93;;;4.82;;
36379;SDS011;22411;53.016;18.632;2023-08-06T03:46:56;10.68;;;6.55;;
36379;SDS011;22411;53.016;18.632;2023-08-06T03:49:22;5.97;;;4.32;;
36379;SDS011;22411;53.016;18.632;2023-08-06T03:51:47;5.10;;;3.55;;
36379;SDS011;22411;53.016;18.632;2023-08-06T03:54:13;3.00;;;1.95;;
36379;SDS011;22411;53.016;18.632;2023-08-06T03:56:39;5.63;;;2.00;;
36379;SDS011;22411;53.016;18.632;2023-08-06T03:59:04;2.28;;;1.40;;
36379;SDS011;22411;53.016;18.632;2023-08-06T04:01:30;2.33;;;1.20;;
36379;SDS011;22411;53.016;18.632;2023-08-06T04:03:56;3.13;;;1.90;;
36379;SDS011;22411;53.016;18.632;2023-08-06T04:06:21;2.63;;;1.90;;
36379;SDS011;22411;53.016;18.632;2023-08-06T04:08:47;2.38;;;1.85;;
36379;SDS011;22411;53.016;18.632;2023-08-06T04:11:12;2.00;;;1.77;;
36379;SDS011;22411;53.016;18.632;2023-08-06T04:13:41;4.20;;;1.70;;
36379;SDS011;22411;53.016;18.632;2023-08-06T04:16:07;1.98;;;1.77;;
36379;SDS011;22411;53.016;18.632;2023-08-06T04:18:33;2.63;;;1.75;;
36379;SDS011;22411;53.016;18.632;2023-08-06T04:20:59;2.25;;;2.00;;
36379;SDS011;22411;53.016;18.632;2023-08-06T04:23:24;1.80;;;1.58;;
36379;SDS011;22411;53.016;18.632;2023-08-06T04:25:50;2.67;;;2.05;;
36379;SDS011;22411;53.016;18.632;2023-08-06T04:28:16;1.90;;;1.15;;
36379;SDS011;22411;53.016;18.632;2023-08-06T04:30:41;1.73;;;1.63;;
36379;SDS011;22411;53.016;18.632;2023-08-06T04:33:07;2.42;;;1.63;;
36379;SDS011;22411;53.016;18.632;2023-08-06T04:35:33;3.08;;;2.08;;
36379;SDS011;22411;53.016;18.632;2023-08-06T04:37:58;2.55;;;2.28;;
36379;SDS011;22411;53.016;18.632;2023-08-06T04:40:24;5.93;;;1.83;;
36379;SDS011;22411;53.016;18.632;2023-08-06T04:42:50;2.33;;;1.50;;
36379;SDS011;22411;53.016;18.632;2023-08-06T04:45:15;3.05;;;1.25;;
36379;SDS011;22411;53.016;18.632;2023-08-06T04:47:41;2.05;;;1.58;;
36379;SDS011;22411;53.016;18.632;2023-08-06T04:50:07;2.83;;;1.73;;
36379;SDS011;22411;53.016;18.632;2023-08-06T04:52:33;2.88;;;2.30;;
36379;SDS011;22411;53.016;18.632;2023-08-06T04:54:59;3.88;;;2.35;;
36379;SDS011;22411;53.016;18.632;2023-08-06T04:57:24;3.63;;;2.83;;
36379;SDS011;22411;53.016;18.632;2023-08-06T04:59:50;6.45;;;4.25;;
36379;SDS011;22411;53.016;18.632;2023-08-06T05:02:16;8.23;;;5.90;;
36379;SDS011;22411;53.016;18.632;2023-08-06T05:04:41;9.73;;;5.55;;
36379;SDS011;22411;53.016;18.632;2023-08-06T05:07:07;7.28;;;5.40;;
36379;SDS011;22411;53.016;18.632;2023-08-06T05:09:32;10.55;;;5.57;;
36379;SDS011;22411;53.016;18.632;2023-08-06T05:12:00;8.57;;;5.60;;
36379;SDS011;22411;53.016;18.632;2023-08-06T05:14:26;9.50;;;5.45;;
36379;SDS011;22411;53.016;18.632;2023-08-06T05:16:52;6.32;;;4.22;;
36379;SDS011;22411;53.016;18.632;2023-08-06T05:19:17;5.82;;;4.47;;
36379;SDS011;22411;53.016;18.632;2023-08-06T05:21:43;3.75;;;3.28;;
36379;SDS011;22411;53.016;18.632;2023-08-06T05:24:08;4.28;;;2.40;;
36379;SDS011;22411;53.016;18.632;2023-08-06T05:26:34;3.42;;;2.28;;
36379;SDS011;22411;53.016;18.632;2023-08-06T05:29:00;2.35;;;1.50;;
36379;SDS011;22411;53.016;18.632;2023-08-06T05:31:26;2.35;;;1.35;;
36379;SDS011;22411;53.016;18.632;2023-08-06T05:33:54;4.15;;;1.77;;
36379;SDS011;22411;53.016;18.632;2023-08-06T05:36:20;3.72;;;1.35;;
36379;SDS011;22411;53.016;18.632;2023-08-06T05:38:46;2.58;;;1.95;;
36379;SDS011;22411;53.016;18.632;2023-08-06T05:41:12;2.67;;;1.70;;
36379;SDS011;22411;53.016;18.632;2023-08-06T05:43:38;1.63;;;1.15;;
36379;SDS011;22411;53.016;18.632;2023-08-06T05:46:04;2.45;;;1.70;;
36379;SDS011;22411;53.016;18.632;2023-08-06T05:48:29;2.42;;;1.20;;
36379;SDS011;22411;53.016;18.632;2023-08-06T05:50:55;1.80;;;1.20;;
36379;SDS011;22411;53.016;18.632;2023-08-06T05:53:21;3.47;;;1.63;;
36379;SDS011;22411;53.016;18.632;2023-08-06T05:55:47;2.20;;;1.25;;
36379;SDS011;22411;53.016;18.632;2023-08-06T05:58:13;2.70;;;1.35;;
36379;SDS011;22411;53.016;18.632;2023-08-06T06:00:38;1.92;;;0.90;;
36379;SDS011;22411;53.016;18.632;2023-08-06T06:03:04;1.38;;;0.82;;
36379;SDS011;22411;53.016;18.632;2023-08-06T06:05:30;2.08;;;1.35;;
36379;SDS011;22411;53.016;18.632;2023-08-06T06:07:55;1.40;;;0.98;;
36379;SDS011;22411;53.016;18.632;2023-08-06T06:10:21;2.35;;;1.50;;
36379;SDS011;22411;53.016;18.632;2023-08-06T06:12:47;4.63;;;1.35;;
36379;SDS011;22411;53.016;18.632;2023-08-06T06:15:13;2.58;;;1.27;;
36379;SDS011;22411;53.016;18.632;2023-08-06T06:17:38;1.35;;;0.90;;
36379;SDS011;22411;53.016;18.632;2023-08-06T06:20:04;2.35;;;0.80;;
36379;SDS011;22411;53.016;18.632;2023-08-06T06:22:30;2.58;;;1.23;;
36379;SDS011;22411;53.016;18.632;2023-08-06T06:24:56;2.75;;;1.10;;
36379;SDS011;22411;53.016;18.632;2023-08-06T06:27:22;1.42;;;0.80;;
36379;SDS011;22411;53.016;18.632;2023-08-06T06:29:47;1.95;;;0.50;;
36379;SDS011;22411;53.016;18.632;2023-08-06T06:32:13;1.30;;;0.70;;
36379;SDS011;22411;53.016;18.632;2023-08-06T06:34:39;1.33;;;0.75;;
36379;SDS011;22411;53.016;18.632;2023-08-06T06:37:04;1.60;;;0.90;;
36379;SDS011;22411;53.016;18.632;2023-08-06T06:39:30;1.42;;;0.55;;
36379;SDS011;22411;53.016;18.632;2023-08-06T06:41:56;1.77;;;0.90;;
36379;SDS011;22411;53.016;18.632;2023-08-06T06:44:22;1.50;;;0.70;;
36379;SDS011;22411;53.016;18.632;2023-08-06T06:46:47;2.10;;;1.63;;
36379;SDS011;22411;53.016;18.632;2023-08-06T06:49:13;1.55;;;0.70;;
36379;SDS011;22411;53.016;18.632;2023-08-06T06:51:39;1.52;;;0.73;;
36379;SDS011;22411;53.016;18.632;2023-08-06T06:54:04;1.73;;;0.88;;
36379;SDS011;22411;53.016;18.632;2023-08-06T06:56:30;0.77;;;0.40;;
36379;SDS011;22411;53.016;18.632;2023-08-06T06:58:56;1.55;;;0.65;;
36379;SDS011;22411;53.016;18.632;2023-08-06T07:01:21;1.98;;;0.85;;
36379;SDS011;22411;53.016;18.632;2023-08-06T07:03:47;1.83;;;0.95;;
36379;SDS011;22411;53.016;18.632;2023-08-06T07:06:13;1.80;;;0.82;;
36379;SDS011;22411;53.016;18.632;2023-08-06T07:08:38;1.45;;;0.85;;
36379;SDS011;22411;53.016;18.632;2023-08-06T07:11:04;2.15;;;1.13;;
36379;SDS011;22411;53.016;18.632;2023-08-06T07:13:32;2.00;;;1.00;;
36379;SDS011;22411;53.016;18.632;2023-08-06T07:15:59;1.23;;;0.65;;
36379;SDS011;22411;53.016;18.632;2023-08-06T07:18:25;1.92;;;0.50;;
36379;SDS011;22411;53.016;18.632;2023-08-06T07:20:50;1.20;;;0.70;;
36379;SDS011;22411;53.016;18.632;2023-08-06T07:23:17;1.15;;;0.65;;
36379;SDS011;22411;53.016;18.632;2023-08-06T07:25:44;2.85;;;1.30;;
36379;SDS011;22411;53.016;18.632;2023-08-06T07:28:11;1.90;;;0.77;;
36379;SDS011;22411;53.016;18.632;2023-08-06T07:30:40;1.25;;;0.88;;
36379;SDS011;22411;53.016;18.632;2023-08-06T07:33:07;1.63;;;1.30;;
36379;SDS011;22411;53.016;18.632;2023-08-06T07:35:33;2.35;;;1.23;;
36379;SDS011;22411;53.016;18.632;2023-08-06T07:37:59;2.10;;;1.00;;
36379;SDS011;22411;53.016;18.632;2023-08-06T07:40:25;1.42;;;0.93;;
36379;SDS011;22411;53.016;18.632;2023-08-06T07:42:51;1.95;;;0.80;;
36379;SDS011;22411;53.016;18.632;2023-08-06T07:45:16;2.65;;;1.27;;
36379;SDS011;22411;53.016;18.632;2023-08-06T07:47:42;2.08;;;1.27;;
36379;SDS011;22411;53.016;18.632;2023-08-06T07:50:08;1.85;;;1.20;;
36379;SDS011;22411;53.016;18.632;2023-08-06T07:52:35;1.35;;;0.75;;
36379;SDS011;22411;53.016;18.632;2023-08-06T07:55:01;1.98;;;1.60;;
36379;SDS011;22411;53.016;18.632;2023-08-06T07:57:33;1.90;;;1.70;;
36379;SDS011;22411;53.016;18.632;2023-08-06T08:00:02;1.52;;;1.13;;
36379;SDS011;22411;53.016;18.632;2023-08-06T08:02:29;2.28;;;1.50;;
36379;SDS011;22411;53.016;18.632;2023-08-06T08:04:55;2.58;;;1.90;;
36379;SDS011;22411;53.016;18.632;2023-08-06T08:07:21;5.82;;;1.70;;
36379;SDS011;22411;53.016;18.632;2023-08-06T08:09:46;2.25;;;1.85;;
36379;SDS011;22411;53.016;18.632;2023-08-06T08:12:13;4.03;;;2.13;;
36379;SDS011;22411;53.016;18.632;2023-08-06T08:14:39;2.80;;;1.90;;
36379;SDS011;22411;53.016;18.632;2023-08-06T08:17:05;3.13;;;2.08;;
36379;SDS011;22411;53.016;18.632;2023-08-06T08:19:31;4.07;;;2.50;;
36379;SDS011;22411;53.016;18.632;2023-08-06T08:21:57;2.17;;;1.52;;
36379;SDS011;22411;53.016;18.632;2023-08-06T08:24:23;2.20;;;1.98;;
36379;SDS011;22411;53.016;18.632;2023-08-06T08:26:50;3.53;;;2.25;;
36379;SDS011;22411;53.016;18.632;2023-08-06T08:29:16;3.97;;;2.80;;
36379;SDS011;22411;53.016;18.632;2023-08-06T08:31:42;2.83;;;2.15;;
36379;SDS011;22411;53.016;18.632;2023-08-06T08:34:08;4.78;;;2.45;;
36379;SDS011;22411;53.016;18.632;2023-08-06T08:36:34;3.50;;;2.75;;
36379;SDS011;22411;53.016;18.632;2023-08-06T08:39:00;2.90;;;2.65;;
36379;SDS011;22411;53.016;18.632;2023-08-06T08:41:29;3.25;;;2.92;;
36379;SDS011;22411;53.016;18.632;2023-08-06T08:43:55;4.60;;;2.90;;
36379;SDS011;22411;53.016;18.632;2023-08-06T08:46:22;3.70;;;3.40;;
36379;SDS011;22411;53.016;18.632;2023-08-06T08:48:48;5.03;;;3.30;;
36379;SDS011;22411;53.016;18.632;2023-08-06T08:51:15;4.13;;;3.13;;
36379;SDS011;22411;53.016;18.632;2023-08-06T08:53:42;3.53;;;3.15;;
36379;SDS011;22411;53.016;18.632;2023-08-06T08:56:09;8.20;;;3.63;;
36379;SDS011;22411;53.016;18.632;2023-08-06T08:58:37;6.03;;;3.45;;
36379;SDS011;22411;53.016;18.632;2023-08-06T09:01:03;6.05;;;3.40;;
36379;SDS011;22411;53.016;18.632;2023-08-06T09:03:30;6.40;;;4.43;;
36379;SDS011;22411;53.016;18.632;2023-08-06T09:05:57;3.97;;;3.28;;
36379;SDS011;22411;53.016;18.632;2023-08-06T09:08:27;3.50;;;3.20;;
36379;SDS011;22411;53.016;18.632;2023-08-06T09:10:56;5.45;;;3.38;;
36379;SDS011;22411;53.016;18.632;2023-08-06T09:13:22;3.67;;;3.35;;
36379;SDS011;22411;53.016;18.632;2023-08-06T09:15:49;4.03;;;3.53;;
36379;SDS011;22411;53.016;18.632;2023-08-06T09:18:21;3.88;;;3.58;;
36379;SDS011;22411;53.016;18.632;2023-08-06T09:20:52;7.20;;;3.97;;
36379;SDS011;22411;53.016;18.632;2023-08-06T09:23:17;4.93;;;3.60;;
36379;SDS011;22411;53.016;18.632;2023-08-06T09:25:43;5.78;;;4.15;;
36379;SDS011;22411;53.016;18.632;2023-08-06T09:28:09;4.85;;;3.90;;
36379;SDS011;22411;53.016;18.632;2023-08-06T09:30:37;4.70;;;3.78;;
36379;SDS011;22411;53.016;18.632;2023-08-06T09:33:04;7.72;;;3.65;;
36379;SDS011;22411;53.016;18.632;2023-08-06T09:35:36;4.32;;;4.03;;
36379;SDS011;22411;53.016;18.632;2023-08-06T09:38:05;5.20;;;4.25;;
36379;SDS011;22411;53.016;18.632;2023-08-06T09:40:35;6.10;;;4.85;;
36379;SDS011;22411;53.016;18.632;2023-08-06T09:43:00;5.47;;;4.47;;
36379;SDS011;22411;53.016;18.632;2023-08-06T09:45:30;6.88;;;6.20;;
36379;SDS011;22411;53.016;18.632;2023-08-06T09:47:57;9.60;;;8.50;;
36379;SDS011;22411;53.016;18.632;2023-08-06T09:50:27;5.70;;;5.20;;
36379;SDS011;22411;53.016;18.632;2023-08-06T09:52:54;11.32;;;5.82;;
36379;SDS011;22411;53.016;18.632;2023-08-06T09:55:21;4.68;;;4.28;;
36379;SDS011;22411;53.016;18.632;2023-08-06T09:57:48;6.63;;;6.03;;
36379;SDS011;22411;53.016;18.632;2023-08-06T10:00:15;6.47;;;5.78;;
36379;SDS011;22411;53.016;18.632;2023-08-06T10:02:41;5.40;;;4.55;;
36379;SDS011;22411;53.016;18.632;2023-08-06T10:05:11;7.47;;;5.38;;
36379;SDS011;22411;53.016;18.632;2023-08-06T10:07:37;8.85;;;6.60;;
36379;SDS011;22411;53.016;18.632;2023-08-06T10:10:07;7.15;;;6.38;;
36379;SDS011;22411;53.016;18.632;2023-08-06T10:12:34;8.85;;;5.93;;
36379;SDS011;22411;53.016;18.632;2023-08-06T10:15:06;11.20;;;7.75;;
36379;SDS011;22411;53.016;18.632;2023-08-06T10:17:35;7.45;;;6.70;;
36379;SDS011;22411;53.016;18.632;2023-08-06T10:20:03;7.60;;;6.85;;
36379;SDS011;22411;53.016;18.632;2023-08-06T10:22:32;9.27;;;7.40;;
36379;SDS011;22411;53.016;18.632;2023-08-06T10:24:59;12.85;;;7.93;;
36379;SDS011;22411;53.016;18.632;2023-08-06T10:27:39;11.40;;;8.07;;
36379;SDS011;22411;53.016;18.632;2023-08-06T10:33:09;9.57;;;8.65;;
36379;SDS011;22411;53.016;18.632;2023-08-06T10:35:41;9.38;;;8.43;;
36379;SDS011;22411;53.016;18.632;2023-08-06T10:40:42;9.88;;;8.68;;
36379;SDS011;22411;53.016;18.632;2023-08-06T10:43:26;12.48;;;8.18;;
36379;SDS011;22411;53.016;18.632;2023-08-06T10:46:00;15.50;;;13.80;;
36379;SDS011;22411;53.016;18.632;2023-08-06T10:48:37;9.75;;;8.85;;
36379;SDS011;22411;53.016;18.632;2023-08-06T10:51:10;10.02;;;8.80;;
36379;SDS011;22411;53.016;18.632;2023-08-06T10:53:37;9.43;;;8.53;;
36379;SDS011;22411;53.016;18.632;2023-08-06T10:58:41;10.45;;;8.52;;
36379;SDS011;22411;53.016;18.632;2023-08-06T11:01:08;9.52;;;8.60;;
36379;SDS011;22411;53.016;18.632;2023-08-06T11:03:35;10.63;;;7.80;;
36379;SDS011;22411;53.016;18.632;2023-08-06T11:06:02;12.70;;;8.23;;
36379;SDS011;22411;53.016;18.632;2023-08-06T11:08:29;9.80;;;8.80;;
36379;SDS011;22411;53.016;18.632;2023-08-06T11:11:11;14.20;;;8.27;;
36379;SDS011;22411;53.016;18.632;2023-08-06T11:13:42;9.27;;;7.55;;
36379;SDS011;22411;53.016;18.632;2023-08-06T11:16:18;9.40;;;8.43;;
36379;SDS011;22411;53.016;18.632;2023-08-06T11:18:45;11.43;;;9.48;;
36379;SDS011;22411;53.016;18.632;2023-08-06T11:21:11;11.38;;;8.70;;
36379;SDS011;22411;53.016;18.632;2023-08-06T11:23:40;10.18;;;9.18;;
36379;SDS011;22411;53.016;18.632;2023-08-06T11:26:07;8.95;;;8.05;;
36379;SDS011;22411;53.016;18.632;2023-08-06T11:28:34;10.63;;;9.57;;
36379;SDS011;22411;53.016;18.632;2023-08-06T11:30:59;12.05;;;10.70;;
36379;SDS011;22411;53.016;18.632;2023-08-06T11:33:27;12.02;;;9.80;;
36379;SDS011;22411;53.016;18.632;2023-08-06T11:35:54;10.10;;;9.10;;
36379;SDS011;22411;53.016;18.632;2023-08-06T11:38:21;11.73;;;9.52;;
36379;SDS011;22411;53.016;18.632;2023-08-06T11:40:47;14.00;;;11.00;;
36379;SDS011;22411;53.016;18.632;2023-08-06T11:43:13;12.02;;;10.02;;
36379;SDS011;22411;53.016;18.632;2023-08-06T11:45:39;12.32;;;11.00;;
36379;SDS011;22411;53.016;18.632;2023-08-06T11:48:06;12.93;;;10.82;;
36379;SDS011;22411;53.016;18.632;2023-08-06T11:50:36;14.63;;;11.95;;
36379;SDS011;22411;53.016;18.632;2023-08-06T11:53:03;15.48;;;12.43;;
36379;SDS011;22411;53.016;18.632;2023-08-06T11:55:29;18.85;;;13.82;;
36379;SDS011;22411;53.016;18.632;2023-08-06T11:57:55;17.65;;;14.27;;
36379;SDS011;22411;53.016;18.632;2023-08-06T12:00:22;13.43;;;12.02;;
36379;SDS011;22411;53.016;18.632;2023-08-06T12:02:49;13.77;;;11.48;;
36379;SDS011;22411;53.016;18.632;2023-08-06T12:05:21;13.63;;;11.98;;
36379;SDS011;22411;53.016;18.632;2023-08-06T12:07:56;16.00;;;11.57;;
36379;SDS011;22411;53.016;18.632;2023-08-06T12:10:24;13.70;;;12.27;;
36379;SDS011;22411;53.016;18.632;2023-08-06T12:12:51;13.73;;;12.38;;
36379;SDS011;22411;53.016;18.632;2023-08-06T12:15:17;14.35;;;12.95;;
36379;SDS011;22411;53.016;18.632;2023-08-06T12:17:43;16.27;;;14.25;;
36379;SDS011;22411;53.016;18.632;2023-08-06T12:20:09;14.27;;;12.98;;
36379;SDS011;22411;53.016;18.632;2023-08-06T12:22:35;14.50;;;13.25;;
36379;SDS011;22411;53.016;18.632;2023-08-06T12:25:04;14.18;;;12.98;;
36379;SDS011;22411;53.016;18.632;2023-08-06T12:27:36;15.23;;;13.73;;
36379;SDS011;22411;53.016;18.632;2023-08-06T12:30:02;15.55;;;13.95;;
36379;SDS011;22411;53.016;18.632;2023-08-06T12:32:29;16.33;;;14.65;;
36379;SDS011;22411;53.016;18.632;2023-08-06T12:34:55;16.80;;;15.18;;
36379;SDS011;22411;53.016;18.632;2023-08-06T12:37:20;17.35;;;15.65;;
36379;SDS011;22411;53.016;18.632;2023-08-06T12:39:46;18.38;;;16.52;;
36379;SDS011;22411;53.016;18.632;2023-08-06T12:42:12;16.73;;;14.95;;
36379;SDS011;22411;53.016;18.632;2023-08-06T12:44:38;16.38;;;14.63;;
36379;SDS011;22411;53.016;18.632;2023-08-06T12:47:04;16.02;;;14.43;;
36379;SDS011;22411;53.016;18.632;2023-08-06T12:49:30;16.23;;;14.73;;
36379;SDS011;22411;53.016;18.632;2023-08-06T12:51:56;20.40;;;17.15;;
36379;SDS011;22411;53.016;18.632;2023-08-06T12:54:25;18.27;;;16.40;;
36379;SDS011;22411;53.016;18.632;2023-08-06T12:56:51;17.58;;;15.85;;
36379;SDS011;22411;53.016;18.632;2023-08-06T12:59:17;20.27;;;17.25;;
36379;SDS011;22411;53.016;18.632;2023-08-06T13:01:43;17.63;;;15.90;;
36379;SDS011;22411;53.016;18.632;2023-08-06T13:04:10;18.27;;;16.48;;
36379;SDS011;22411;53.016;18.632;2023-08-06T13:06:36;17.08;;;15.05;;
36379;SDS011;22411;53.016;18.632;2023-08-06T13:09:03;17.25;;;15.65;;
36379;SDS011;22411;53.016;18.632;2023-08-06T13:11:29;16.90;;;15.30;;
36379;SDS011;22411;53.016;18.632;2023-08-06T13:13:59;15.07;;;13.73;;
36379;SDS011;22411;53.016;18.632;2023-08-06T13:16:29;15.63;;;13.98;;
36379;SDS011;22411;53.016;18.632;2023-08-06T13:18:55;17.35;;;15.50;;
36379;SDS011;22411;53.016;18.632;2023-08-06T13:21:20;16.20;;;14.77;;
36379;SDS011;22411;53.016;18.632;2023-08-06T13:23:46;18.55;;;14.88;;
36379;SDS011;22411;53.016;18.632;2023-08-06T13:26:13;16.88;;;15.27;;
36379;SDS011;22411;53.016;18.632;2023-08-06T13:28:39;17.55;;;15.57;;
36379;SDS011;22411;53.016;18.632;2023-08-06T13:31:04;17.55;;;15.68;;
36379;SDS011;22411;53.016;18.632;2023-08-06T13:33:30;16.67;;;15.07;;
36379;SDS011;22411;53.016;18.632;2023-08-06T13:35:56;15.63;;;14.13;;
36379;SDS011;22411;53.016;18.632;2023-08-06T13:38:21;18.10;;;16.20;;
36379;SDS011;22411;53.016;18.632;2023-08-06T13:40:47;16.88;;;15.38;;
36379;SDS011;22411;53.016;18.632;2023-08-06T13:43:13;15.63;;;14.23;;
36379;SDS011;22411;53.016;18.632;2023-08-06T13:45:41;17.55;;;15.75;;
36379;SDS011;22411;53.016;18.632;2023-08-06T13:48:07;17.45;;;15.65;;
36379;SDS011;22411;53.016;18.632;2023-08-06T13:50:33;16.70;;;15.10;;
36379;SDS011;22411;53.016;18.632;2023-08-06T13:52:59;19.17;;;16.13;;
36379;SDS011;22411;53.016;18.632;2023-08-06T13:55:24;17.52;;;15.73;;
36379;SDS011;22411;53.016;18.632;2023-08-06T13:57:52;17.23;;;15.43;;
36379;SDS011;22411;53.016;18.632;2023-08-06T14:00:17;19.45;;;17.45;;
36379;SDS011;22411;53.016;18.632;2023-08-06T14:02:47;16.23;;;14.50;;
36379;SDS011;22411;53.016;18.632;2023-08-06T14:05:12;17.08;;;15.38;;
36379;SDS011;22411;53.016;18.632;2023-08-06T14:07:39;17.42;;;15.75;;
36379;SDS011;22411;53.016;18.632;2023-08-06T14:10:04;17.98;;;16.10;;
36379;SDS011;22411;53.016;18.632;2023-08-06T14:12:31;18.23;;;16.52;;
36379;SDS011;22411;53.016;18.632;2023-08-06T14:14:56;19.13;;;15.88;;
36379;SDS011;22411;53.016;18.632;2023-08-06T14:17:22;17.35;;;15.75;;
36379;SDS011;22411;53.016;18.632;2023-08-06T14:19:48;18.77;;;16.98;;
36379;SDS011;22411;53.016;18.632;2023-08-06T14:22:14;18.55;;;16.63;;
36379;SDS011;22411;53.016;18.632;2023-08-06T14:24:39;17.42;;;15.65;;
36379;SDS011;22411;53.016;18.632;2023-08-06T14:27:05;18.00;;;16.30;;
36379;SDS011;22411;53.016;18.632;2023-08-06T14:29:31;19.40;;;17.40;;
36379;SDS011;22411;53.016;18.632;2023-08-06T14:31:57;25.73;;;20.42;;
36379;SDS011;22411;53.016;18.632;2023-08-06T14:34:23;29.75;;;21.42;;
36379;SDS011;22411;53.016;18.632;2023-08-06T14:36:49;32.38;;;28.90;;
36379;SDS011;22411;53.016;18.632;2023-08-06T14:39:14;22.52;;;17.45;;